Observation data for Andrews on 06/15/2019      Previous  Date  Next       Current Mesonet Observations  Soil Data  Daily Summary Page  Observations in Plain Language
KANS 150500Z 19011KT 25/17 A2988 RMK A01 T02540166  RH  060%=      5-min Rain = 0
KANS 150505Z 19009KT 25/17 A2988 RMK A01 T02530165  RH  059%=      5-min Rain = 0
KANS 150510Z 19009KT 25/16 A2988 RMK A01 T02520163  RH  059%=      5-min Rain = 0
KANS 150515Z 19009KT 25/16 A2988 RMK A01 T02510162  RH  059%=      5-min Rain = 0
KANS 150520Z 18008KT 25/16 A2989 RMK A01 T02490162  RH  059%=      5-min Rain = 0
KANS 150525Z 18008KT 25/16 A2989 RMK A01 T02470161  RH  060%=      5-min Rain = 0
KANS 150530Z 17009KT 24/16 A2988 RMK A01 T02440161  RH  061%=      5-min Rain = 0
KANS 150535Z 17009KT 24/16 A2989 RMK A01 T02440157  RH  060%=      5-min Rain = 0
KANS 150540Z 17007KT 24/15 A2989 RMK A01 T02430154  RH  059%=      5-min Rain = 0
KANS 150545Z 19006KT 24/15 A2989 RMK A01 T02420152  RH  058%=      5-min Rain = 0
KANS 150550Z 21005KT 24/15 A2989 RMK A01 T02400150  RH  058%=      5-min Rain = 0
KANS 150555Z 22005KT 24/15 A299 RMK A01 T02390150  RH  059%=      5-min Rain = 0
KANS 150600Z 19006KT 24/15 A299 RMK A01 T02380149  RH  059%=      5-min Rain = 0
KANS 150605Z 17007KT 24/15 A2989 RMK A01 T02370147  RH  058%=      5-min Rain = 0
KANS 150610Z 19007KT 24/15 A2989 RMK A01 T02370147  RH  058%=      5-min Rain = 0
KANS 150615Z 18007KT 24/15 A2989 RMK A01 T02370146  RH  058%=      5-min Rain = 0
KANS 150620Z 18006KT 24/15 A2989 RMK A01 T02360146  RH  058%=      5-min Rain = 0
KANS 150625Z 18007KT 23/15 A2988 RMK A01 T02340146  RH  059%=      5-min Rain = 0
KANS 150630Z 18007KT 23/15 A2988 RMK A01 T02330146  RH  059%=      5-min Rain = 0
KANS 150635Z 17006KT 23/15 A2988 RMK A01 T02310146  RH  060%=      5-min Rain = 0
KANS 150640Z 17006KT 23/15 A2988 RMK A01 T02290146  RH  061%=      5-min Rain = 0
KANS 150645Z 17005KT 23/15 A2988 RMK A01 T02260146  RH  062%=      5-min Rain = 0
KANS 150650Z 16006KT 22/15 A2988 RMK A01 T02230146  RH  063%=      5-min Rain = 0
KANS 150655Z 17005KT 22/15 A2987 RMK A01 T02210146  RH  064%=      5-min Rain = 0
KANS 150700Z 17006KT 22/15 A2987 RMK A01 T02180147  RH  065%=      5-min Rain = 0
KANS 150705Z 18006KT 22/15 A2987 RMK A01 T02170147  RH  066%=      5-min Rain = 0
KANS 150710Z 19006KT 22/15 A2987 RMK A01 T02160146  RH  066%=      5-min Rain = 0
KANS 150715Z 20006KT 22/15 A2987 RMK A01 T02160146  RH  066%=      5-min Rain = 0
KANS 150720Z 19007KT 22/15 A2987 RMK A01 T02180145  RH  064%=      5-min Rain = 0
KANS 150725Z 20006KT 22/14 A2987 RMK A01 T02200144  RH  064%=      5-min Rain = 0
KANS 150730Z 20007KT 22/14 A2987 RMK A01 T02210144  RH  063%=      5-min Rain = 0
KANS 150735Z 20007KT 22/14 A2987 RMK A01 T02210143  RH  062%=      5-min Rain = 0
KANS 150740Z 20007KT 22/14 A2987 RMK A01 T02210142  RH  062%=      5-min Rain = 0
KANS 150745Z 19007KT 22/14 A2987 RMK A01 T02200142  RH  062%=      5-min Rain = 0
KANS 150750Z 19007KT 22/14 A2987 RMK A01 T02200141  RH  062%=      5-min Rain = 0
KANS 150755Z 19008KT 22/14 A2987 RMK A01 T02180141  RH  063%=      5-min Rain = 0
KANS 150800Z 19008KT 22/14 A2987 RMK A01 T02180140  RH  062%=      5-min Rain = 0
KANS 150805Z 19007KT 22/14 A2986 RMK A01 T02190139  RH  062%=      5-min Rain = 0
KANS 150810Z 19008KT 22/14 A2986 RMK A01 T02180138  RH  062%=      5-min Rain = 0
KANS 150815Z 20008KT 22/14 A2986 RMK A01 T02170137  RH  062%=      5-min Rain = 0
KANS 150820Z 20008G13KT 22/14 A2986 RMK A01 T02180136  RH  061%=      5-min Rain = 0
KANS 150825Z 19008KT 22/14 A2986 RMK A01 T02190136  RH  061%=      5-min Rain = 0
KANS 150830Z 19008KT 22/14 A2986 RMK A01 T02180135  RH  060%=      5-min Rain = 0
KANS 150835Z 20007KT 22/14 A2986 RMK A01 T02170135  RH  061%=      5-min Rain = 0
KANS 150840Z 19008KT 22/14 A2986 RMK A01 T02160135  RH  061%=      5-min Rain = 0
KANS 150845Z 17009KT 22/14 A2986 RMK A01 T02150135  RH  061%=      5-min Rain = 0
KANS 150850Z 19009KT 22/13 A2986 RMK A01 T02150134  RH  061%=      5-min Rain = 0
KANS 150855Z 19008KT 22/13 A2986 RMK A01 T02150134  RH  061%=      5-min Rain = 0
KANS 150900Z 19008KT 22/13 A2986 RMK A01 T02160134  RH  061%=      5-min Rain = 0
KANS 150905Z 20008KT 22/13 A2986 RMK A01 T02180133  RH  060%=      5-min Rain = 0
KANS 150910Z 20009G14KT 22/13 A2986 RMK A01 T02170132  RH  059%=      5-min Rain = 0
KANS 150915Z 19009KT 22/13 A2986 RMK A01 T02170130  RH  059%=      5-min Rain = 0
KANS 150920Z 20010KT 22/13 A2985 RMK A01 T02170129  RH  059%=      5-min Rain = 0
KANS 150925Z 20009KT 22/13 A2985 RMK A01 T02160129  RH  059%=      5-min Rain = 0
KANS 150930Z 20009KT 22/13 A2986 RMK A01 T02160128  RH  058%=      5-min Rain = 0
KANS 150935Z 20009KT 22/13 A2986 RMK A01 T02160127  RH  058%=      5-min Rain = 0
KANS 150940Z 21008KT 21/13 A2986 RMK A01 T02140127  RH  059%=      5-min Rain = 0
KANS 150945Z 21008KT 21/13 A2986 RMK A01 T02120128  RH  060%=      5-min Rain = 0
KANS 150950Z 20009KT 21/13 A2986 RMK A01 T02120126  RH  059%=      5-min Rain = 0
KANS 150955Z 20009KT 21/12 A2986 RMK A01 T02130124  RH  058%=      5-min Rain = 0
KANS 151000Z 20009KT 22/12 A2986 RMK A01 T02150122  RH  056%=      5-min Rain = 0
KANS 151005Z 21009G14KT 22/12 A2986 RMK A01 T02170120  RH  055%=      5-min Rain = 0
KANS 151010Z 20010G15KT 22/12 A2985 RMK A01 T02180118  RH  054%=      5-min Rain = 0
KANS 151015Z 20012G17KT 22/12 A2986 RMK A01 T02220115  RH  052%=      5-min Rain = 0
KANS 151020Z 20011G16KT 22/11 A2986 RMK A01 T02240113  RH  050%=      5-min Rain = 0
KANS 151025Z 20011G16KT 23/11 A2986 RMK A01 T02250112  RH  050%=      5-min Rain = 0
KANS 151030Z 21010KT 23/11 A2986 RMK A01 T02270110  RH  049%=      5-min Rain = 0
KANS 151035Z 21011G16KT 23/11 A2986 RMK A01 T02290108  RH  047%=      5-min Rain = 0
KANS 151040Z 20011G16KT 23/11 A2986 RMK A01 T02340105  RH  045%=      5-min Rain = 0
KANS 151045Z 20012G17KT 24/10 A2986 RMK A01 T02370103  RH  043%=      5-min Rain = 0
KANS 151050Z 20012G21KT 24/10 A2986 RMK A01 T02390100  RH  042%=      5-min Rain = 0
KANS 151055Z 20012G17KT 24/10 A2986 RMK A01 T02410097  RH  041%=      5-min Rain = 0
KANS 151100Z 20012G17KT 24/09 A2985 RMK A01 T02420094  RH  040%=      5-min Rain = 0
KANS 151105Z 20013G19KT 24/09 A2985 RMK A01 T02440093  RH  039%=      5-min Rain = 0
KANS 151110Z 20013G19KT 24/09 A2985 RMK A01 T02440094  RH  039%=      5-min Rain = 0
KANS 151115Z 20012G17KT 24/10 A2985 RMK A01 T02430096  RH  040%=      5-min Rain = 0
KANS 151120Z 20012G17KT 24/10 A2986 RMK A01 T02420097  RH  040%=      5-min Rain = 0
KANS 151125Z 20012G17KT 24/10 A2986 RMK A01 T02410097  RH  041%=      5-min Rain = 0
KANS 151130Z 20012G18KT 24/10 A2986 RMK A01 T02390099  RH  042%=      5-min Rain = 0
KANS 151135Z 20011KT 24/10 A2986 RMK A01 T02380100  RH  042%=      5-min Rain = 0
KANS 151140Z 20011G17KT 24/10 A2986 RMK A01 T02360101  RH  043%=      5-min Rain = 0
KANS 151145Z 20011G16KT 24/10 A2986 RMK A01 T02350102  RH  044%=      5-min Rain = 0
KANS 151150Z 20011KT 24/10 A2986 RMK A01 T02350103  RH  044%=      5-min Rain = 0
KANS 151155Z 20012G18KT 23/10 A2985 RMK A01 T02330104  RH  045%=      5-min Rain = 0
KANS 151200Z 20011G17KT 23/11 A2986 RMK A01 T02320105  RH  045%=      5-min Rain = 0
KANS 151205Z 20011G16KT 23/11 A2985 RMK A01 T02310106  RH  046%=      5-min Rain = 0
KANS 151210Z 20010KT 23/11 A2985 RMK A01 T02300107  RH  047%=      5-min Rain = 0
KANS 151215Z 20010KT 23/11 A2986 RMK A01 T02290108  RH  047%=      5-min Rain = 0
KANS 151220Z 21010G15KT 23/11 A2986 RMK A01 T02290108  RH  047%=      5-min Rain = 0
KANS 151225Z 21008G13KT 23/11 A2986 RMK A01 T02290110  RH  048%=      5-min Rain = 0
KANS 151230Z 21010KT 23/11 A2986 RMK A01 T02290110  RH  048%=      5-min Rain = 0
KANS 151235Z 21010KT 23/11 A2986 RMK A01 T02300111  RH  048%=      5-min Rain = 0
KANS 151240Z 21010KT 23/11 A2986 RMK A01 T02310111  RH  048%=      5-min Rain = 0
KANS 151245Z 21009G14KT 23/11 A2986 RMK A01 T02320112  RH  048%=      5-min Rain = 0
KANS 151250Z 21010G16KT 23/11 A2986 RMK A01 T02340112  RH  047%=      5-min Rain = 0
KANS 151255Z 21011G17KT 24/11 A2987 RMK A01 T02360112  RH  047%=      5-min Rain = 0
KANS 151300Z 21011KT 24/11 A2987 RMK A01 T02370113  RH  047%=      5-min Rain = 0
KANS 151305Z 21010G15KT 24/11 A2987 RMK A01 T02390114  RH  046%=      5-min Rain = 0
KANS 151310Z 22011G16KT 24/11 A2987 RMK A01 T02410113  RH  045%=      5-min Rain = 0
KANS 151315Z 22010G15KT 24/11 A2987 RMK A01 T02430114  RH  045%=      5-min Rain = 0
KANS 151320Z 22011KT 25/11 A2987 RMK A01 T02460113  RH  044%=      5-min Rain = 0
KANS 151325Z 22011G16KT 25/11 A2987 RMK A01 T02490113  RH  043%=      5-min Rain = 0
KANS 151330Z 22011G17KT 25/11 A2987 RMK A01 T02510113  RH  043%=      5-min Rain = 0
KANS 151335Z 22011G17KT 25/11 A2987 RMK A01 T02530113  RH  042%=      5-min Rain = 0
KANS 151340Z 23011G16KT 26/11 A2987 RMK A01 T02560114  RH  042%=      5-min Rain = 0
KANS 151345Z 22012G17KT 26/11 A2987 RMK A01 T02590112  RH  041%=      5-min Rain = 0
KANS 151350Z 23012G17KT 26/11 A2987 RMK A01 T02610113  RH  040%=      5-min Rain = 0
KANS 151355Z 23012KT 27/11 A2987 RMK A01 T02650110  RH  039%=      5-min Rain = 0
KANS 151400Z 23011G16KT 27/11 A2987 RMK A01 T02700108  RH  037%=      5-min Rain = 0
KANS 151405Z 23010KT 27/10 A2987 RMK A01 T02740104  RH  035%=      5-min Rain = 0
KANS 151410Z 24012G18KT 28/10 A2987 RMK A01 T02790101  RH  034%=      5-min Rain = 0
KANS 151415Z 24013KT 28/10 A2988 RMK A01 T02820097  RH  032%=      5-min Rain = 0
KANS 151420Z 24012G18KT 29/10 A2988 RMK A01 T02850095  RH  031%=      5-min Rain = 0
KANS 151425Z 24012KT 29/09 A2988 RMK A01 T02880094  RH  030%=      5-min Rain = 0
KANS 151430Z 25012G17KT 29/09 A2988 RMK A01 T02910094  RH  030%=      5-min Rain = 0
KANS 151435Z 25013G18KT 29/09 A2988 RMK A01 T02920092  RH  029%=      5-min Rain = 0
KANS 151440Z 25014G19KT 29/09 A2988 RMK A01 T02930089  RH  028%=      5-min Rain = 0
KANS 151445Z 26013G18KT 30/09 A2988 RMK A01 T02950087  RH  028%=      5-min Rain = 0
KANS 151450Z 26011G17KT 30/09 A2988 RMK A01 T02980089  RH  028%=      5-min Rain = 0
KANS 151455Z 26012G19KT 30/09 A2988 RMK A01 T03010086  RH  027%=      5-min Rain = 0
KANS 151500Z 25014G20KT 30/08 A2988 RMK A01 T03000080  RH  026%=      5-min Rain = 0
KANS 151505Z 26014G19KT 30/08 A2988 RMK A01 T03020078  RH  025%=      5-min Rain = 0
KANS 151510Z 26012G17KT 30/08 A2988 RMK A01 T03040079  RH  025%=      5-min Rain = 0
KANS 151515Z 27010G20KT 31/08 A2988 RMK A01 T03110078  RH  024%=      5-min Rain = 0
KANS 151520Z 26012G19KT 31/07 A2988 RMK A01 T03130073  RH  023%=      5-min Rain = 0
KANS 151525Z 27013KT 31/07 A2988 RMK A01 T03130068  RH  022%=      5-min Rain = 0
KANS 151530Z 26013G19KT 32/07 A2988 RMK A01 T03150065  RH  021%=      5-min Rain = 0
KANS 151535Z 27013KT 32/06 A2988 RMK A01 T03150062  RH  021%=      5-min Rain = 0
KANS 151540Z 27011KT 32/06 A2988 RMK A01 T03190062  RH  020%=      5-min Rain = 0
KANS 151545Z 27010G15KT 32/06 A2988 RMK A01 T03240058  RH  019%=      5-min Rain = 0
KANS 151550Z 27009KT 33/05 A2988 RMK A01 T03280054  RH  018%=      5-min Rain = 0
KANS 151555Z 26010G15KT 33/04 A2988 RMK A01 T03310043  RH  017%=      5-min Rain = 0
KANS 151600Z 26011G16KT 33/05 A2988 RMK A01 T03330051  RH  017%=      5-min Rain = 0
KANS 151605Z 27010G17KT 34/03 A2988 RMK A01 T03370032  RH  015%=      5-min Rain = 0
KANS 151610Z 27012G18KT 34/03 A2988 RMK A01 T03380031  RH  015%=      5-min Rain = 0
KANS 151615Z 27012G18KT 34/04 A2988 RMK A01 T03370036  RH  015%=      5-min Rain = 0
KANS 151620Z 27012G17KT 34/03 A2988 RMK A01 T03380034  RH  015%=      5-min Rain = 0
KANS 151625Z 27011G16KT 34/03 A2988 RMK A01 T03410027  RH  014%=      5-min Rain = 0
KANS 151630Z 28011KT 34/03 A2988 RMK A01 T03430026  RH  014%=      5-min Rain = 0
KANS 151635Z 28012G18KT 34/02 A2988 RMK A01 T03440023  RH  013%=      5-min Rain = 0
KANS 151640Z 27010G15KT 35/02 A2988 RMK A01 T03450019  RH  013%=      5-min Rain = 0
KANS 151645Z 28008KT 35/02 A2988 RMK A01 T03500021  RH  013%=      5-min Rain = 0
KANS 151650Z 30009G14KT 35/02 A2988 RMK A01 T03530015  RH  012%=      5-min Rain = 0
KANS 151655Z 30010G15KT 35/01 A2987 RMK A01 T03530008  RH  012%=      5-min Rain = 0
KANS 151700Z 31009G14KT 35/01 A2987 RMK A01 T03530007  RH  011%=      5-min Rain = 0
KANS 151705Z 30007G13KT 36/01 A2987 RMK A01 T03560009  RH  011%=      5-min Rain = 0
KANS 151710Z 29005G11KT 36/00 A2987 RMK A01 T03600001  RH  011%=      5-min Rain = 0
KANS 151715Z 30007KT 36/M00 A2988 RMK A01 T03601002  RH  010%=      5-min Rain = 0
KANS 151720Z 29006KT 36/M01 A2988 RMK A01 T03621008  RH  010%=      5-min Rain = 0
KANS 151725Z 28008G13KT 36/M01 A2988 RMK A01 T03641011  RH  009%=      5-min Rain = 0
KANS 151730Z 28010G15KT 37/M02 A2988 RMK A01 T03671021  RH  009%=      5-min Rain = 0
KANS 151735Z 28008G13KT 37/M03 A2988 RMK A01 T03701029  RH  008%=      5-min Rain = 0
KANS 151740Z 28006KT 37/M03 A2988 RMK A01 T03681030  RH  008%=      5-min Rain = 0
KANS 151745Z 29006G14KT 37/M03 A2987 RMK A01 T03661026  RH  008%=      5-min Rain = 0
KANS 151750Z 28009KT 37/M03 A2987 RMK A01 T03671026  RH  008%=      5-min Rain = 0
KANS 151755Z 30009G14KT 37/M03 A2987 RMK A01 T03691027  RH  008%=      5-min Rain = 0
KANS 151800Z 29008G14KT 38/M02 A2987 RMK A01 T03751022  RH  008%=      5-min Rain = 0
KANS 151805Z 27009G15KT 38/M02 A2987 RMK A01 T03751021  RH  008%=      5-min Rain = 0
KANS 151810Z 25006G11KT 37/M03 A2987 RMK A01 T03741031  RH  008%=      5-min Rain = 0
KANS 151815Z 28007G12KT 37/M04 A2987 RMK A01 T03731038  RH  007%=      5-min Rain = 0
KANS 151820Z 28008G13KT 38/M04 A2987 RMK A01 T03761044  RH  007%=      5-min Rain = 0
KANS 151825Z 27008G14KT 38/M04 A2987 RMK A01 T03781037  RH  007%=      5-min Rain = 0
KANS 151830Z 26006G14KT 38/M03 A2987 RMK A01 T03771034  RH  007%=      5-min Rain = 0
KANS 151835Z 28009G17KT 38/M04 A2986 RMK A01 T03811040  RH  007%=      5-min Rain = 0
KANS 151840Z 25010G17KT 38/M04 A2987 RMK A01 T03801044  RH  007%=      5-min Rain = 0
KANS 151845Z 23009G14KT 38/M04 A2987 RMK A01 T03761041  RH  007%=      5-min Rain = 0
KANS 151850Z 24008KT 38/M04 A2986 RMK A01 T03791035  RH  007%=      5-min Rain = 0
KANS 151855Z 26007G14KT 38/M04 A2986 RMK A01 T03831041  RH  007%=      5-min Rain = 0
KANS 151900Z 24011G16KT 38/M03 A2986 RMK A01 T03831033  RH  007%=      5-min Rain = 0
KANS 151905Z 24009KT 38/M04 A2986 RMK A01 T03771037  RH  007%=      5-min Rain = 0
KANS 151910Z 22009KT 37/M03 A2986 RMK A01 T03741034  RH  007%=      5-min Rain = 0
KANS 151915Z 26011G22KT 38/M03 A2986 RMK A01 T03791031  RH  007%=      5-min Rain = 0
KANS 151920Z 27009KT 38/M03 A2986 RMK A01 T03831033  RH  007%=      5-min Rain = 0
KANS 151925Z 28009KT 39/M04 A2985 RMK A01 T03851036  RH  007%=      5-min Rain = 0
KANS 151930Z 27010G17KT 38/M04 A2985 RMK A01 T03831039  RH  007%=      5-min Rain = 0
KANS 151935Z 28010G19KT 38/M04 A2985 RMK A01 T03821040  RH  007%=      5-min Rain = 0
KANS 151940Z 27010G15KT 37/M04 A2985 RMK A01 T03721038  RH  007%=      5-min Rain = 0
KANS 151945Z 27010G17KT 37/M03 A2985 RMK A01 T03671034  RH  008%=      5-min Rain = 0
KANS 151950Z 25008KT 37/M04 A2985 RMK A01 T03651035  RH  008%=      5-min Rain = 0
KANS 151955Z 25010G18KT 36/M03 A2985 RMK A01 T03631032  RH  008%=      5-min Rain = 0
KANS 152000Z 27008KT 36/M03 A2984 RMK A01 T03631029  RH  008%=      5-min Rain = 0
KANS 152005Z 24012G18KT 37/M02 A2984 RMK A01 T03711020  RH  008%=      5-min Rain = 0
KANS 152010Z 23007G15KT 38/M03 A2984 RMK A01 T03791025  RH  008%=      5-min Rain = 0
KANS 152015Z 21007KT 38/M03 A2984 RMK A01 T03801025  RH  008%=      5-min Rain = 0
KANS 152020Z 26008KT 38/M02 A2984 RMK A01 T03811024  RH  008%=      5-min Rain = 0
KANS 152025Z 25010G20KT 38/M02 A2984 RMK A01 T03841016  RH  008%=      5-min Rain = 0
KANS 152030Z 24012G18KT 38/M02 A2983 RMK A01 T03751015  RH  009%=      5-min Rain = 0
KANS 152035Z 21011G17KT 37/M02 A2983 RMK A01 T03701015  RH  009%=      5-min Rain = 0
KANS 152040Z 22008KT 37/M02 A2983 RMK A01 T03741017  RH  008%=      5-min Rain = 0
KANS 152045Z 23010G18KT 38/M01 A2983 RMK A01 T03791013  RH  008%=      5-min Rain = 0
KANS 152050Z 24010G16KT 38/M01 A2983 RMK A01 T03761011  RH  009%=      5-min Rain = 0
KANS 152055Z 23012G17KT 37/M01 A2983 RMK A01 T03731005  RH  009%=      5-min Rain = 0
KANS 152100Z 24010G17KT 38/M01 A2982 RMK A01 T03761007  RH  009%=      5-min Rain = 0
KANS 152105Z 24012KT 38/M00 A2982 RMK A01 T03831004  RH  009%=      5-min Rain = 0
KANS 152110Z 24013G20KT 39/M01 A2982 RMK A01 T03851005  RH  009%=      5-min Rain = 0
KANS 152115Z 25014G19KT 39/M01 A2982 RMK A01 T03851006  RH  009%=      5-min Rain = 0
KANS 152120Z 22012KT 38/M01 A2982 RMK A01 T03821007  RH  009%=      5-min Rain = 0
KANS 152125Z 21010KT 38/M01 A2982 RMK A01 T03761006  RH  009%=      5-min Rain = 0
KANS 152130Z 22009G16KT 38/M01 A2981 RMK A01 T03811005  RH  009%=      5-min Rain = 0
KANS 152135Z 25012G19KT 38/M00 A2982 RMK A01 T03821003  RH  009%=      5-min Rain = 0
KANS 152140Z 24008G13KT 38/M00 A2981 RMK A01 T03751004  RH  009%=      5-min Rain = 0
KANS 152145Z 23010G22KT 38/M01 A2981 RMK A01 T03801008  RH  009%=      5-min Rain = 0
KANS 152150Z 25011G16KT 38/M01 A2981 RMK A01 T03831007  RH  009%=      5-min Rain = 0
KANS 152155Z 23013G19KT 38/M00 A2981 RMK A01 T03811002  RH  009%=      5-min Rain = 0
KANS 152200Z 23008KT 38/M01 A2981 RMK A01 T03791005  RH  009%=      5-min Rain = 0
KANS 152205Z 25011G17KT 38/M01 A298 RMK A01 T03811005  RH  009%=      5-min Rain = 0
KANS 152210Z 23007G16KT 38/M00 A298 RMK A01 T03811004  RH  009%=      5-min Rain = 0
KANS 152215Z 24012G20KT 38/M00 A298 RMK A01 T03771001  RH  009%=      5-min Rain = 0
KANS 152220Z 24011G18KT 37/M01 A298 RMK A01 T03691005  RH  010%=      5-min Rain = 0
KANS 152225Z 22011G17KT 38/M00 A298 RMK A01 T03771003  RH  009%=      5-min Rain = 0
KANS 152230Z 24012G23KT 38/M00 A298 RMK A01 T03811004  RH  009%=      5-min Rain = 0
KANS 152235Z 25014G20KT 38/M00 A2979 RMK A01 T03811004  RH  009%=      5-min Rain = 0
KANS 152240Z 26010G15KT 38/M01 A2979 RMK A01 T03801005  RH  009%=      5-min Rain = 0
KANS 152245Z 25011G18KT 38/M01 A2979 RMK A01 T03831005  RH  009%=      5-min Rain = 0
KANS 152250Z 25016G24KT 38/M01 A2979 RMK A01 T03821010  RH  009%=      5-min Rain = 0
KANS 152255Z 26014G22KT 38/M01 A2979 RMK A01 T03791010  RH  009%=      5-min Rain = 0
KANS 152300Z 25012G19KT 38/M01 A2979 RMK A01 T03771012  RH  009%=      5-min Rain = 0
KANS 152305Z 25011G22KT 38/M01 A2979 RMK A01 T03751011  RH  009%=      5-min Rain = 0
KANS 152310Z 25014G25KT 38/M01 A2978 RMK A01 T03761013  RH  009%=      5-min Rain = 0
KANS 152315Z 26017G22KT 38/M02 A2978 RMK A01 T03751019  RH  008%=      5-min Rain = 0
KANS 152320Z 25011G17KT 38/M02 A2978 RMK A01 T03751015  RH  009%=      5-min Rain = 0
KANS 152325Z 26014G19KT 37/M02 A2978 RMK A01 T03741018  RH  008%=      5-min Rain = 0
KANS 152330Z 25014G21KT 37/M02 A2978 RMK A01 T03721020  RH  008%=      5-min Rain = 0
KANS 152335Z 25014G19KT 37/M02 A2978 RMK A01 T03711020  RH  008%=      5-min Rain = 0
KANS 152340Z 27014G22KT 37/M03 A2977 RMK A01 T03701026  RH  008%=      5-min Rain = 0
KANS 152345Z 26012G17KT 37/M02 A2977 RMK A01 T03721024  RH  008%=      5-min Rain = 0
KANS 152350Z 26014G22KT 37/M03 A2977 RMK A01 T03701027  RH  008%=      5-min Rain = 0
KANS 152355Z 25014G23KT 37/M03 A2977 RMK A01 T03691030  RH  008%=      5-min Rain = 0
KANS 160000Z 25014G20KT 37/M03 A2977 RMK A01 T03671031  RH  008%=      5-min Rain = 0
KANS 160005Z 25013G20KT 37/M03 A2977 RMK A01 T03661031  RH  008%=      5-min Rain = 0
KANS 160010Z 24014G19KT 36/M04 A2977 RMK A01 T03641036  RH  008%=      5-min Rain = 0
KANS 160015Z 24015G23KT 36/M04 A2977 RMK A01 T03621038  RH  008%=      5-min Rain = 0
KANS 160020Z 26015G22KT 36/M04 A2977 RMK A01 T03621044  RH  007%=      5-min Rain = 0
KANS 160025Z 25015G25KT 36/M05 A2978 RMK A01 T03611048  RH  007%=      5-min Rain = 0
KANS 160030Z 24013G20KT 36/M05 A2978 RMK A01 T03601049  RH  007%=      5-min Rain = 0
KANS 160035Z 24013G19KT 36/M05 A2978 RMK A01 T03581051  RH  007%=      5-min Rain = 0
KANS 160040Z 26013G18KT 36/M05 A2978 RMK A01 T03571053  RH  007%=      5-min Rain = 0
KANS 160045Z 25013G18KT 36/M06 A2978 RMK A01 T03561057  RH  007%=      5-min Rain = 0
KANS 160050Z 25012G17KT 36/M06 A2979 RMK A01 T03561056  RH  007%=      5-min Rain = 0
KANS 160055Z 24012G17KT 35/M06 A2979 RMK A01 T03531056  RH  007%=      5-min Rain = 0
KANS 160100Z 24015KT 35/M06 A2979 RMK A01 T03511063  RH  007%=      5-min Rain = 0
KANS 160105Z 25012G18KT 35/M06 A2979 RMK A01 T03501063  RH  007%=      5-min Rain = 0
KANS 160110Z 24014KT 35/M07 A2979 RMK A01 T03481069  RH  007%=      5-min Rain = 0
KANS 160115Z 24011G17KT 35/M07 A2979 RMK A01 T03471065  RH  007%=      5-min Rain = 0
KANS 160120Z 24009G14KT 34/M06 A298 RMK A01 T03431059  RH  007%=      5-min Rain = 0
KANS 160125Z 24010G16KT 34/M07 A298 RMK A01 T03411066  RH  007%=      5-min Rain = 0
KANS 160130Z 24009G14KT 34/M07 A298 RMK A01 T03391068  RH  007%=      5-min Rain = 0
KANS 160135Z 24010KT 34/M07 A298 RMK A01 T03361067  RH  007%=      5-min Rain = 0
KANS 160140Z 25009KT 33/M06 A298 RMK A01 T03331064  RH  007%=      5-min Rain = 0
KANS 160145Z 24008KT 33/M06 A298 RMK A01 T03291062  RH  008%=      5-min Rain = 0
KANS 160150Z 24008KT 33/M06 A2981 RMK A01 T03261061  RH  008%=      5-min Rain = 0
KANS 160155Z 25007KT 32/M06 A2981 RMK A01 T03221060  RH  008%=      5-min Rain = 0
KANS 160200Z 25007KT 32/M06 A2981 RMK A01 T03181058  RH  009%=      5-min Rain = 0
KANS 160205Z 25008KT 31/M06 A2981 RMK A01 T03141057  RH  009%=      5-min Rain = 0
KANS 160210Z 25008KT 31/M06 A2981 RMK A01 T03111055  RH  009%=      5-min Rain = 0
KANS 160215Z 25008KT 31/M05 A2981 RMK A01 T03091054  RH  009%=      5-min Rain = 0
KANS 160220Z 25007KT 31/M05 A2982 RMK A01 T03071054  RH  009%=      5-min Rain = 0
KANS 160225Z 25007KT 30/M05 A2982 RMK A01 T03041052  RH  010%=      5-min Rain = 0
KANS 160230Z 25007KT 30/M05 A2982 RMK A01 T03011050  RH  010%=      5-min Rain = 0
KANS 160235Z 25007KT 30/M05 A2982 RMK A01 T02961047  RH  010%=      5-min Rain = 0
KANS 160240Z 26007KT 29/M05 A2982 RMK A01 T02941048  RH  011%=      5-min Rain = 0
KANS 160245Z 26006KT 30/M05 A2982 RMK A01 T02951048  RH  011%=      5-min Rain = 0
KANS 160250Z 26006KT 29/M05 A2982 RMK A01 T02941047  RH  011%=      5-min Rain = 0
KANS 160255Z 26007KT 29/M05 A2983 RMK A01 T02931046  RH  011%=      5-min Rain = 0
KANS 160300Z 26006KT 29/M05 A2983 RMK A01 T02921046  RH  011%=      5-min Rain = 0
KANS 160305Z 26006KT 29/M04 A2983 RMK A01 T02901044  RH  011%=      5-min Rain = 0
KANS 160310Z 25007KT 28/M04 A2983 RMK A01 T02831041  RH  012%=      5-min Rain = 0
KANS 160315Z 24007KT 28/M04 A2983 RMK A01 T02751038  RH  013%=      5-min Rain = 0
KANS 160320Z 25007KT 27/M04 A2983 RMK A01 T02691038  RH  013%=      5-min Rain = 0
KANS 160325Z 24007KT 26/M04 A2983 RMK A01 T02641036  RH  014%=      5-min Rain = 0
KANS 160330Z 24007KT 26/M04 A2983 RMK A01 T02591037  RH  014%=      5-min Rain = 0
KANS 160335Z 25007KT 26/M04 A2983 RMK A01 T02571037  RH  014%=      5-min Rain = 0
KANS 160340Z 25007KT 26/M04 A2983 RMK A01 T02561036  RH  014%=      5-min Rain = 0
KANS 160345Z 24006KT 26/M04 A2984 RMK A01 T02551036  RH  014%=      5-min Rain = 0
KANS 160350Z 18007KT 25/M03 A2985 RMK A01 T02521029  RH  016%=      5-min Rain = 0
KANS 160355Z 18009KT 26/M02 A2985 RMK A01 T02551017  RH  017%=      5-min Rain = 0
KANS 160400Z 20009G14KT 26/03 A2985 RMK A01 T02610029  RH  023%=      5-min Rain = 0
KANS 160405Z 19010G15KT 27/05 A2984 RMK A01 T02660046  RH  025%=      5-min Rain = 0
KANS 160410Z 19010G15KT 27/05 A2984 RMK A01 T02690050  RH  025%=      5-min Rain = 0
KANS 160415Z 19011G16KT 27/05 A2984 RMK A01 T02700052  RH  025%=      5-min Rain = 0
KANS 160420Z 19011KT 27/05 A2984 RMK A01 T02690054  RH  026%=      5-min Rain = 0
KANS 160425Z 20009G14KT 27/06 A2985 RMK A01 T02680057  RH  026%=      5-min Rain = 0
KANS 160430Z 21008KT 27/06 A2985 RMK A01 T02670060  RH  027%=      5-min Rain = 0
KANS 160435Z 20008G13KT 27/06 A2985 RMK A01 T02660062  RH  028%=      5-min Rain = 0
KANS 160440Z 19010G17KT 27/07 A2985 RMK A01 T02660066  RH  028%=      5-min Rain = 0
KANS 160445Z 20011KT 27/07 A2985 RMK A01 T02670072  RH  030%=      5-min Rain = 0
KANS 160450Z 20013KT 27/08 A2985 RMK A01 T02670079  RH  031%=      5-min Rain = 0
KANS 160455Z 21011G17KT 27/09 A2985 RMK A01 T02680085  RH  032%=      5-min Rain = 0

Page generated in 0.0088 seconds.